Le Roy, IL

12:44 AM CST on December 20, 2014 (GMT -0600)
KILLEROY2 | Change Station
CLOSE
Current Station
Personal Weather Station
Location: Le Roy, IL
Elevation: 774 ft
Nearby Weather Stations

Elev 774 ft 40.35 °N, 88.75 °W | Updated 303 days ago

Partly Cloudy
Partly Cloudy
25 °F
Feels Like 25 °F
N
2
Wind Variable Wind from SE
Gusts 3 mph

Today
High -- | Low -- °F
--% Chance of Precip.
Yesterday
High -- | Low -- °F
Precip. -- in
7:13 AM 4:31 PM
Waning Crescent, 4% visible
Pressure 30.34 in
Visibility 9.0 miles
Clouds Mostly Cloudy 7000 ft
Dew Point 21 °F
Humidity 86%
Rainfall 0.53 in
Snow Depth Not available.
UV 0 out of 12
Pollen .10 out of 12
Air Quality Not available.
Flu Activity Not available.
METAR KBMI 200556Z AUTO 00000KT 9SM BKN070 M04/M06 A3027 RMK AO2 51005 T10381055 11022 21044 400001077 SLP272

More Conditions Fewer Conditions

Pressure 30.34 in
Visibility 9.0 miles
Clouds Mostly Cloudy 7000 ft
Dew Point 21 °F
Humidity 86%
Rainfall 0.53 in
Snow Depth Not available.
UV 0 out of 12
Pollen .10 out of 12
Air Quality Not available.
Flu Activity Not available.
METAR KBMI 200556Z AUTO 00000KT 9SM BKN070 M04/M06 A3027 RMK AO2 51005 T10381055 11022 21044 400001077 SLP272

More Conditions Fewer Conditions

10-Day Weather Forecast

Almanac

Astronomy

Dec. 20, 2014 Rise Set
Actual Time
Civil Twilight
Nautical Twilight
Astronomical Twilight
Moon
Length of Visible Light
Length of Day
Tomorrow will be .
, % of the Moon is Illuminated

Today's Extremes

State Highs State Lows

Community

WunderPhotos

Upload Photos

1,779,144 photos uploaded!

WunderBlogs® & News

Nearby

Air Quality

  Air Quality AQ Index Pollutant
Not available.

Snow Depth

Station Depth Elevation

Earthquake Activity

City Distance Mag. Time & Date
Minimum magnitude displayed is 2.5.

Coastal Water Temperatures

Place Temperature

Nearby Weather Stations